Time;durP1;ratioP1;P1;durP2;ratioP2;P2;SDS_P1;SDS_P2;PMS_P1;PMS_P2;Temp;Humidity;BMP_temperature;BMP_pressure;BME280_temperature;BME280_humidity;BME280_pressure;Samples;Min_cycle;Max_cycle;Signal;HPM_P1;HPM_P2
2022/07/22 00:01:15;;;;;;;12.65;8.10;;;;;;;22.97;56.73;100960.78;4132355;28;20128;-69
2022/07/22 00:03:18;;;;;;;8.07;7.25;;;;;;;22.95;56.37;100964.38;4131495;28;20046;-70
2022/07/22 00:05:21;;;;;;;8.30;7.30;;;;;;;22.73;57.04;100966.78;4114991;28;20130;-69
2022/07/22 00:07:24;;;;;;;10.27;7.32;;;;;;;22.78;56.52;100964.84;4132353;28;20484;-70
2022/07/22 00:09:29;;;;;;;16.17;7.15;;;;;;;22.66;57.18;100958.13;4131867;28;20500;-69
2022/07/22 00:11:32;;;;;;;10.52;7.22;;;;;;;22.65;57.13;100959.06;4131990;28;20042;-68
2022/07/22 00:13:34;;;;;;;10.90;6.75;;;;;;;22.69;56.82;100958.03;4131503;28;20069;-69
2022/07/22 00:15:38;;;;;;;8.00;6.65;;;;;;;22.63;57.08;100953.81;4132184;28;20042;-69
2022/07/22 00:17:41;;;;;;;7.93;5.88;;;;;;;22.55;57.32;100955.78;4131115;28;20104;-69
2022/07/22 00:19:44;;;;;;;10.55;6.95;;;;;;;22.67;56.84;100957.22;4132105;28;20046;-68
2022/07/22 00:21:47;;;;;;;7.80;6.72;;;;;;;22.71;56.86;100955.38;4131445;28;20045;-68
2022/07/22 00:23:50;;;;;;;13.30;7.15;;;;;;;22.64;56.66;100957.31;4131847;28;20038;-69
2022/07/22 00:25:54;;;;;;;7.43;6.07;;;;;;;22.51;57.11;100954.13;4132129;28;20038;-68
2022/07/22 00:27:57;;;;;;;11.30;7.20;;;;;;;22.56;56.71;100956.66;4131976;28;20101;-69
2022/07/22 00:30:00;;;;;;;10.60;6.43;;;;;;;22.46;56.84;100950.75;4130766;28;20042;-71
2022/07/22 00:32:03;;;;;;;8.45;7.00;;;;;;;22.35;57.09;100948.38;4131173;28;20038;-69
2022/07/22 00:34:06;;;;;;;10.52;7.00;;;;;;;22.34;56.81;100953.72;4130646;28;20133;-69
2022/07/22 00:36:10;;;;;;;7.57;6.40;;;;;;;22.34;56.88;100959.00;4130844;28;20084;-69
2022/07/22 00:38:13;;;;;;;9.23;7.27;;;;;;;22.36;56.96;100951.91;4130727;28;20054;-70
2022/07/22 00:40:16;;;;;;;8.45;7.18;;;;;;;22.31;56.96;100954.63;4131813;28;20277;-69
2022/07/22 00:42:20;;;;;;;11.27;6.90;;;;;;;22.29;57.20;100959.09;4131046;28;20500;-69
2022/07/22 00:44:26;;;;;;;10.05;8.10;;;;;;;22.32;56.78;100964.34;4130796;28;20069;-68
2022/07/22 00:46:31;;;;;;;8.88;7.22;;;;;;;22.28;56.97;100960.00;4130755;28;20143;-69
2022/07/22 00:48:33;;;;;;;7.63;6.82;;;;;;;22.21;57.13;100963.72;4130573;28;20089;-69
2022/07/22 00:50:37;;;;;;;10.77;7.30;;;;;;;22.29;57.29;100956.47;4114418;28;20137;-69
2022/07/22 00:52:40;;;;;;;11.00;7.47;;;;;;;22.34;57.19;100959.00;4146061;28;20034;-69
2022/07/22 00:54:43;;;;;;;11.07;7.53;;;;;;;22.27;57.23;100953.84;4130473;28;20140;-69
2022/07/22 00:56:46;;;;;;;9.52;6.22;;;;;;;22.28;57.30;100958.25;4114368;28;20505;-69
2022/07/22 00:58:53;;;;;;;9.93;7.28;;;;;;;22.25;57.48;100950.38;4146657;28;20128;-69
2022/07/22 01:00:57;;;;;;;7.95;7.07;;;;;;;22.24;57.39;100950.41;4130364;28;20050;-69
2022/07/22 01:03:00;;;;;;;10.40;7.35;;;;;;;22.28;57.26;100949.41;4129645;28;20042;-69
2022/07/22 01:05:04;;;;;;;10.13;7.95;;;;;;;22.32;57.19;100956.41;4146683;28;20038;-69
2022/07/22 01:07:07;;;;;;;8.07;5.55;;;;;;;22.12;57.78;100949.84;4131590;28;20400;-69
2022/07/22 01:09:10;;;;;;;11.15;7.45;;;;;;;22.21;57.34;100947.84;4130467;28;20448;-69
2022/07/22 01:11:14;;;;;;;10.13;7.32;;;;;;;22.20;57.24;100949.63;4130570;28;20050;-68
2022/07/22 01:13:17;;;;;;;;;;;;;;;22.13;57.49;100953.34;4129904;28;20182;-69
2022/07/22 01:15:21;;;;;;;9.45;7.13;;;;;;;22.04;57.69;100943.00;4129636;28;19922;-69
2022/07/22 01:17:24;;;;;;;9.68;7.55;;;;;;;22.05;57.74;100947.38;4113544;28;20042;-69
2022/07/22 01:19:33;;;;;;;12.10;7.60;;;;;;;22.07;57.60;100949.06;4113504;28;20051;-69
2022/07/22 01:21:37;;;;;;;9.45;7.40;;;;;;;22.02;57.84;100948.34;4131563;28;20512;-69
2022/07/22 01:23:40;;;;;;;11.30;8.38;;;;;;;22.01;57.82;100951.88;4132414;28;20034;-70
2022/07/22 01:25:43;;;;;;;11.80;7.38;;;;;;;21.89;58.33;100955.72;4132503;28;20042;-69
2022/07/22 01:27:46;;;;;;;9.95;6.90;;;;;;;21.97;57.98;100956.38;4132541;28;20043;-69
2022/07/22 01:29:49;;;;;;;12.05;7.43;;;;;;;22.04;57.60;100961.53;4132452;28;20050;-69
2022/07/22 01:31:52;;;;;;;11.30;8.00;;;;;;;22.07;57.30;100966.75;4131805;28;20070;-69
2022/07/22 01:33:55;;;;;;;13.60;8.35;;;;;;;22.02;57.29;100965.97;4133713;28;20460;-69
2022/07/22 01:35:58;;;;;;;10.68;7.20;;;;;;;21.92;57.54;100960.06;4132385;28;20133;-69
2022/07/22 01:38:03;;;;;;;11.80;7.75;;;;;;;22.02;57.57;100964.22;4132341;28;20034;-69
2022/07/22 01:40:06;;;;;;;;;;;;;;;21.87;57.62;100962.81;4132787;28;20535;-69
2022/07/22 01:42:09;;;;;;;15.07;8.10;;;;;;;21.82;57.77;100964.72;4131571;28;20470;-69
2022/07/22 01:44:12;;;;;;;12.73;9.02;;;;;;;21.88;57.46;100961.91;4132344;28;20049;-69
2022/07/22 01:46:16;;;;;;;12.02;9.02;;;;;;;21.99;57.21;100960.75;4132239;28;20035;-69
2022/07/22 01:48:20;;;;;;;10.95;8.52;;;;;;;22.03;56.94;100962.44;4132193;28;20092;-70
2022/07/22 01:50:23;;;;;;;10.05;8.27;;;;;;;21.88;57.34;100964.56;4116205;28;20046;-69
2022/07/22 01:52:26;;;;;;;11.65;9.02;;;;;;;21.87;57.46;100964.59;4132886;28;20125;-69
2022/07/22 01:54:30;;;;;;;10.73;8.73;;;;;;;21.90;57.20;100957.47;4132154;28;20053;-69
2022/07/22 01:56:33;;;;;;;;;;;;;;;21.76;57.66;100956.94;4132564;28;20045;-69
2022/07/22 01:58:36;;;;;;;15.57;8.30;;;;;;;21.77;57.54;100956.88;4148287;28;19925;-69
2022/07/22 02:00:44;;;;;;;9.70;8.23;;;;;;;21.73;57.84;100949.94;4148311;28;20046;-69
2022/07/22 02:02:47;;;;;;;11.00;8.17;;;;;;;21.74;57.59;100956.06;4147414;28;20132;-68
2022/07/22 02:04:51;;;;;;;11.48;8.50;;;;;;;21.79;57.45;100951.56;4132023;28;20043;-69
2022/07/22 02:06:54;;;;;;;13.85;9.05;;;;;;;21.79;57.44;100952.41;4131998;28;20069;-69
2022/07/22 02:08:56;;;;;;;11.63;8.32;;;;;;;21.75;57.40;100948.09;4132007;28;20043;-69
2022/07/22 02:11:28;;;;;;;10.02;7.82;;;;;;;21.68;57.69;100957.09;4134620;28;20595;-70
2022/07/22 02:13:32;;;;;;;9.95;8.40;;;;;;;21.77;57.50;100948.06;4077933;28;1085200;-70
2022/07/22 02:15:35;;;;;;;10.90;8.77;;;;;;;21.78;57.48;100961.25;4133028;28;20077;-70
2022/07/22 02:17:38;;;;;;;13.05;8.85;;;;;;;21.84;57.12;100949.66;4149219;28;20137;-69
2022/07/22 02:19:44;;;;;;;14.02;9.35;;;;;;;21.75;57.31;100949.88;4132809;28;20038;-71
2022/07/22 02:21:48;;;;;;;12.00;8.25;;;;;;;21.66;57.59;100944.81;4115873;28;20453;-69
2022/07/22 02:23:51;;;;;;;12.27;9.20;;;;;;;21.66;57.67;100950.13;4132694;28;20204;-69
2022/07/22 02:25:54;;;;;;;13.85;8.77;;;;;;;21.72;56.71;100950.81;4132733;28;20034;-69
2022/07/22 02:27:58;;;;;;;13.25;9.18;;;;;;;21.72;56.61;100950.81;4116426;28;20149;-69
2022/07/22 02:30:02;;;;;;;9.95;7.60;;;;;;;21.66;56.82;100953.63;4132546;28;20417;-69
2022/07/22 02:32:05;;;;;;;12.50;8.15;;;;;;;21.72;56.49;100955.25;4147702;28;20053;-71
2022/07/22 02:34:08;;;;;;;9.80;7.47;;;;;;;21.55;57.17;100959.19;4116354;28;20093;-70
2022/07/22 02:36:12;;;;;;;10.48;7.75;;;;;;;21.54;57.09;100951.28;4132527;28;20038;-69
2022/07/22 02:38:16;;;;;;;10.45;7.75;;;;;;;21.51;57.20;100956.63;4132485;28;20046;-70
2022/07/22 02:40:19;;;;;;;12.80;7.93;;;;;;;21.60;56.90;100957.28;4132482;28;20070;-70
2022/07/22 02:42:22;;;;;;;10.13;7.72;;;;;;;21.56;57.13;100955.59;4131758;28;20046;-70
2022/07/22 02:44:28;;;;;;;;;;;;;;;21.36;57.43;100952.53;4132802;28;20042;-70
2022/07/22 02:46:32;;;;;;;15.43;8.85;;;;;;;21.43;57.65;100946.19;4132492;28;19957;-70
2022/07/22 02:48:45;;;;;;;10.23;7.78;;;;;;;21.46;57.64;100954.06;4132529;28;20077;-69
2022/07/22 02:50:52;;;;;;;11.38;6.90;;;;;;;21.42;57.83;100952.38;4132356;28;20043;-70
2022/07/22 02:53:00;;;;;;;10.88;7.63;;;;;;;21.51;57.56;100946.94;4131457;28;20039;-70
2022/07/22 02:55:09;;;;;;;13.23;8.45;;;;;;;21.48;57.34;100957.56;4132269;28;20074;-70
2022/07/22 02:57:12;;;;;;;9.80;7.30;;;;;;;21.39;57.74;100955.09;4132126;28;20408;-70
2022/07/22 02:59:16;;;;;;;10.02;7.65;;;;;;;21.34;57.92;100955.22;4132221;28;20492;-69
2022/07/22 03:01:20;;;;;;;11.50;8.52;;;;;;;21.40;57.84;100964.78;4132126;28;20035;-70
2022/07/22 03:03:29;;;;;;;12.02;8.00;;;;;;;21.36;58.03;100957.81;4131316;28;20516;-70
2022/07/22 03:05:32;;;;;;;10.38;6.93;;;;;;;21.34;58.19;100957.00;4148277;28;20044;-69
2022/07/22 03:07:51;;;;;;;8.82;6.82;;;;;;;21.35;58.37;100964.00;4132091;28;20121;-69
2022/07/22 03:09:56;;;;;;;14.80;9.20;;;;;;;21.52;57.84;100963.66;4131955;28;20503;-70
2022/07/22 03:12:05;;;;;;;11.10;8.23;;;;;;;21.45;58.00;100962.91;4131163;28;20049;-70
2022/07/22 03:14:08;;;;;;;12.48;9.13;;;;;;;21.37;58.26;100956.91;4131870;28;20042;-70
2022/07/22 03:16:11;;;;;;;12.05;9.15;;;;;;;21.34;58.26;100954.34;4131928;28;20447;-70
2022/07/22 03:18:16;;;;;;;11.25;8.98;;;;;;;21.35;58.17;100959.59;4132108;28;20325;-70
2022/07/22 03:20:18;;;;;;;16.00;9.45;;;;;;;21.24;58.49;100958.97;4132062;28;20052;-70
2022/07/22 03:22:21;;;;;;;12.55;8.43;;;;;;;21.17;58.58;100957.34;4131107;28;20042;-70
2022/07/22 03:24:24;;;;;;;13.98;9.38;;;;;;;21.23;58.43;100966.03;4115853;28;20186;-68
2022/07/22 03:26:28;;;;;;;15.50;10.60;;;;;;;21.25;58.00;100960.72;4148068;28;20084;-71
2022/07/22 03:28:31;;;;;;;11.45;8.93;;;;;;;21.08;58.41;100961.06;4131774;28;20049;-70
2022/07/22 03:30:34;;;;;;;13.45;10.02;;;;;;;21.04;58.78;100957.63;4132905;28;20046;-69
2022/07/22 03:32:37;;;;;;;12.60;9.40;;;;;;;20.91;59.01;100958.81;4130801;28;20046;-71
2022/07/22 03:34:42;;;;;;;13.43;9.15;;;;;;;20.85;59.24;100962.44;4131579;28;20120;-71
2022/07/22 03:36:45;;;;;;;13.35;8.60;;;;;;;20.98;58.81;100970.09;4131595;28;20038;-71
2022/07/22 03:38:48;;;;;;;13.45;9.27;;;;;;;20.95;58.66;100963.09;4132751;28;20527;-69
2022/07/22 03:40:51;;;;;;;12.52;9.75;;;;;;;20.81;58.88;100966.03;4131513;28;20085;-71
2022/07/22 03:42:54;;;;;;;19.20;11.40;;;;;;;20.70;59.60;100965.38;4146465;28;20037;-70
2022/07/22 03:44:57;;;;;;;14.25;10.05;;;;;;;20.80;59.39;100971.34;4131284;28;20412;-71
2022/07/22 03:47:00;;;;;;;15.73;11.55;;;;;;;20.80;59.47;100974.84;4131463;28;20101;-71
2022/07/22 03:49:03;;;;;;;15.27;11.15;;;;;;;20.78;59.43;100971.38;4115199;28;20049;-70
2022/07/22 03:51:08;;;;;;;11.43;9.77;;;;;;;20.77;59.47;100971.41;4147772;28;20049;-70
2022/07/22 03:53:10;;;;;;;14.60;10.95;;;;;;;20.80;59.66;100977.50;4130482;28;20066;-70
2022/07/22 03:55:16;;;;;;;13.65;9.70;;;;;;;20.91;58.71;100977.31;4115176;28;20050;-71
2022/07/22 03:57:22;;;;;;;12.48;9.07;;;;;;;20.73;58.96;100970.59;4131332;28;20408;-71
2022/07/22 03:59:34;;;;;;;13.77;10.52;;;;;;;20.67;59.41;100976.00;4147698;28;20042;-70
2022/07/22 04:01:39;;;;;;;12.73;9.35;;;;;;;20.64;59.53;100973.41;4114391;28;20054;-70
2022/07/22 04:03:44;;;;;;;13.38;10.20;;;;;;;20.70;59.43;100966.22;4147513;28;20073;-70
2022/07/22 04:05:59;;;;;;;13.27;11.03;;;;;;;20.68;59.10;100973.31;4131235;28;20069;-70
2022/07/22 04:08:23;;;;;;;15.05;10.43;;;;;;;20.58;59.20;100969.94;4132456;28;20112;-71
2022/07/22 04:10:27;;;;;;;13.50;10.07;;;;;;;20.48;59.33;100973.66;4131244;28;20626;-69
2022/07/22 04:12:30;;;;;;;14.90;10.10;;;;;;;20.50;59.46;100971.88;4130397;28;20088;-70
2022/07/22 04:14:45;;;;;;;12.68;10.38;;;;;;;20.56;59.34;100971.75;4114745;28;20086;-70
2022/07/22 04:16:48;;;;;;;15.57;11.10;;;;;;;20.41;59.86;100977.31;4130982;28;20522;-69
2022/07/22 04:18:51;;;;;;;15.27;8.45;;;;;;;20.34;59.83;100975.69;4114791;28;20066;-70
2022/07/22 04:21:09;;;;;;;12.18;9.18;;;;;;;20.36;59.92;100973.91;4130892;28;20046;-70
2022/07/22 04:23:26;;;;;;;14.43;10.05;;;;;;;20.33;60.10;100964.25;4130253;28;20046;-70
2022/07/22 04:25:41;;;;;;;14.55;9.88;;;;;;;20.31;60.45;100963.44;4130843;28;20160;-69
2022/07/22 04:27:44;;;;;;;15.52;9.73;;;;;;;20.40;59.81;100967.69;4130894;28;20065;-70
2022/07/22 04:29:47;;;;;;;14.63;10.15;;;;;;;20.30;60.34;100969.59;4130942;28;20034;-70
2022/07/22 04:31:50;;;;;;;16.15;10.43;;;;;;;20.22;60.34;100960.94;4130105;28;20042;-70
2022/07/22 04:33:55;;;;;;;15.70;10.63;;;;;;;20.20;60.83;100957.47;4114540;28;20093;-70
2022/07/22 04:35:58;;;;;;;15.68;10.82;;;;;;;20.28;60.41;100949.41;4130760;28;20125;-70
2022/07/22 04:38:01;;;;;;;13.57;9.23;;;;;;;20.25;60.52;100949.47;4130755;28;20479;-70
2022/07/22 04:40:07;;;;;;;14.52;10.38;;;;;;;20.27;60.36;100953.81;4130801;28;20042;-70
2022/07/22 04:42:10;;;;;;;14.07;9.82;;;;;;;20.21;60.47;100953.94;4129963;28;20213;-69
2022/07/22 04:44:14;;;;;;;13.57;10.65;;;;;;;20.19;60.20;100953.06;4130570;28;20039;-71
2022/07/22 04:46:17;;;;;;;14.85;10.57;;;;;;;20.22;60.58;100956.56;4131689;28;20077;-70
2022/07/22 04:48:20;;;;;;;15.20;10.38;;;;;;;20.26;60.30;100961.78;4130545;28;20073;-69
2022/07/22 04:50:24;;;;;;;14.05;10.38;;;;;;;20.24;60.31;100959.16;4130588;28;20042;-70
2022/07/22 04:52:34;;;;;;;13.35;10.98;;;;;;;20.13;60.55;100958.47;4131021;28;20074;-70
2022/07/22 04:54:38;;;;;;;15.23;10.35;;;;;;;19.97;61.36;100961.38;4130230;28;20081;-70
2022/07/22 04:56:44;;;;;;;14.80;10.13;;;;;;;20.18;60.51;100962.78;4130536;28;20125;-70
2022/07/22 04:58:47;;;;;;;15.75;10.45;;;;;;;20.21;60.64;100965.38;4114482;28;20054;-69
2022/07/22 05:00:50;;;;;;;15.50;10.18;;;;;;;20.18;60.97;100970.69;4146690;28;20038;-71
2022/07/22 05:02:53;;;;;;;16.45;9.65;;;;;;;20.20;60.67;100965.38;4129589;28;20527;-70
2022/07/22 05:04:56;;;;;;;15.00;10.50;;;;;;;20.26;60.64;100961.78;4146347;28;20423;-70
2022/07/22 05:07:03;;;;;;;15.65;10.80;;;;;;;20.28;60.19;100966.13;4146844;28;20080;-70
2022/07/22 05:09:07;;;;;;;15.10;10.07;;;;;;;20.25;60.56;100965.31;4130337;28;20066;-70
2022/07/22 05:11:09;;;;;;;13.93;10.63;;;;;;;20.34;60.27;100965.13;4130368;28;20372;-70
2022/07/22 05:13:14;;;;;;;12.52;10.60;;;;;;;20.37;59.94;100965.06;4129456;28;20038;-71
2022/07/22 05:15:17;;;;;;;13.38;9.88;;;;;;;20.35;60.20;100964.25;4130341;28;20039;-71
2022/07/22 05:17:20;;;;;;;15.00;11.35;;;;;;;20.36;59.83;100966.84;4130397;28;20046;-70
2022/07/22 05:19:41;;;;;;;13.88;9.98;;;;;;;20.18;60.81;100960.13;4130327;28;20121;-70
2022/07/22 05:21:47;;;;;;;12.48;9.63;;;;;;;20.29;59.85;100965.22;4129730;28;20045;-70
2022/07/22 05:23:49;;;;;;;14.57;10.68;;;;;;;20.22;60.30;100971.50;4146340;28;20087;-70
2022/07/22 05:25:53;;;;;;;15.63;10.25;;;;;;;20.32;59.97;100966.94;4130429;28;20097;-70
2022/07/22 05:27:56;;;;;;;14.77;10.77;;;;;;;20.34;59.89;100962.47;4130394;28;20046;-69
2022/07/22 05:30:09;;;;;;;16.17;9.55;;;;;;;20.27;60.46;100963.50;4114261;28;20506;-71
2022/07/22 05:32:14;;;;;;;11.13;8.40;;;;;;;20.36;59.83;100969.50;4129426;28;20385;-69
2022/07/22 05:34:17;;;;;;;;;;;;;;;20.21;60.27;100964.50;4130508;28;20038;-70
2022/07/22 05:36:26;;;;;;;13.07;9.65;;;;;;;20.39;59.96;100956.22;4130452;28;19921;-70
2022/07/22 05:38:32;;;;;;;;;;;;;;;20.19;60.81;100966.28;4130576;28;20615;-71
2022/07/22 05:40:35;;;;;;;14.05;8.63;;;;;;;20.30;60.53;100966.97;4146447;28;19925;-70
2022/07/22 05:42:40;;;;;;;14.07;9.55;;;;;;;20.45;60.27;100971.09;4113345;28;20367;-70
2022/07/22 05:44:42;;;;;;;15.50;9.57;;;;;;;20.54;59.81;100965.63;4130102;28;20105;-70
2022/07/22 05:46:47;;;;;;;11.35;9.45;;;;;;;20.54;59.72;100957.69;4130143;28;20077;-70
2022/07/22 05:48:50;;;;;;;13.90;9.98;;;;;;;20.54;59.71;100957.69;4130093;28;20100;-71
2022/07/22 05:50:53;;;;;;;13.77;9.23;;;;;;;20.48;59.83;100957.81;4113954;28;20081;-71
2022/07/22 05:52:57;;;;;;;11.88;8.75;;;;;;;20.60;60.06;100961.13;4129224;28;20042;-70
2022/07/22 05:55:01;;;;;;;13.10;9.75;;;;;;;20.70;59.48;100960.09;4129976;28;20038;-71
2022/07/22 05:57:04;;;;;;;13.75;9.40;;;;;;;20.82;58.99;100954.56;4130044;28;20043;-70
2022/07/22 05:59:07;;;;;;;10.43;8.95;;;;;;;20.77;59.05;100952.91;4130030;28;20074;-71
2022/07/22 06:01:11;;;;;;;11.07;8.75;;;;;;;20.68;59.50;100946.91;4113814;28;20050;-70
2022/07/22 06:03:15;;;;;;;10.60;9.20;;;;;;;20.74;59.10;100953.84;4145414;28;20053;-70
2022/07/22 06:05:21;;;;;;;13.40;9.30;;;;;;;20.67;59.35;100952.22;4130025;28;20369;-71
2022/07/22 06:07:43;;;;;;;13.57;8.80;;;;;;;20.78;59.38;100950.25;4132374;28;20492;-70
2022/07/22 06:09:51;;;;;;;16.75;10.65;;;;;;;21.02;58.17;100951.50;4116787;28;20054;-70
2022/07/22 06:11:54;;;;;;;13.07;9.83;;;;;;;20.95;58.43;100951.66;4132245;28;20077;-69
2022/07/22 06:13:57;;;;;;;12.30;9.73;;;;;;;20.86;58.95;100950.94;4148951;28;20820;-71
2022/07/22 06:16:00;;;;;;;11.63;9.45;;;;;;;20.75;59.28;100950.31;4132810;28;20042;-69
2022/07/22 06:18:03;;;;;;;15.98;10.07;;;;;;;20.75;59.58;100947.66;4132811;28;20042;-70
2022/07/22 06:20:09;;;;;;;13.00;10.57;;;;;;;20.84;59.27;100954.53;4133957;28;20409;-71
2022/07/22 06:22:17;;;;;;;18.60;11.25;;;;;;;20.84;59.18;100950.13;4115936;28;20102;-70
2022/07/22 06:24:20;;;;;;;16.35;10.57;;;;;;;20.81;59.62;100950.19;4133023;28;20100;-68
2022/07/22 06:26:28;;;;;;;13.38;9.75;;;;;;;20.89;59.32;100952.66;4132824;28;20097;-70
2022/07/22 06:28:31;;;;;;;13.60;9.75;;;;;;;20.86;59.41;100947.44;4132705;28;20046;-71
2022/07/22 06:30:34;;;;;;;14.35;9.48;;;;;;;20.87;59.73;100950.03;4132621;28;20137;-70
2022/07/22 06:32:37;;;;;;;15.07;9.45;;;;;;;20.95;59.60;100947.22;4131915;28;20441;-70
2022/07/22 06:34:48;;;;;;;13.10;10.18;;;;;;;21.00;59.75;100949.81;4132592;28;20469;-71
2022/07/22 06:36:52;;;;;;;13.52;8.93;;;;;;;21.21;58.44;100938.75;4132543;28;20068;-70
2022/07/22 06:38:55;;;;;;;14.57;10.40;;;;;;;21.12;58.71;100944.25;4132665;28;20042;-70
2022/07/22 06:41:19;;;;;;;12.90;9.93;;;;;;;21.10;58.87;100943.41;4133752;28;20051;-71
2022/07/22 06:43:40;;;;;;;15.40;10.13;;;;;;;21.14;59.15;100938.91;4133750;28;20038;-69
2022/07/22 06:46:02;;;;;;;13.13;8.45;;;;;;;21.23;58.70;100936.06;4133666;28;20121;-69
2022/07/22 06:48:18;;;;;;;11.60;8.25;;;;;;;21.33;58.44;100936.72;4132401;28;20046;-71
2022/07/22 06:50:22;;;;;;;9.77;8.30;;;;;;;21.29;58.34;100938.59;4132446;28;20453;-71
2022/07/22 06:52:29;;;;;;;11.10;7.30;;;;;;;21.34;58.47;100938.47;4131537;28;20038;-70
2022/07/22 06:54:33;;;;;;;12.40;7.72;;;;;;;21.53;58.29;100941.59;4132156;28;20097;-70
2022/07/22 06:56:37;;;;;;;13.18;8.27;;;;;;;21.63;57.71;100942.25;4132256;28;20038;-68
2022/07/22 06:58:43;;;;;;;19.73;7.93;;;;;;;21.70;57.33;100939.41;4132373;28;20050;-71
2022/07/22 07:00:47;;;;;;;11.82;7.95;;;;;;;21.73;57.01;100938.47;4132173;28;20093;-71
2022/07/22 07:03:11;;;;;;;10.70;7.35;;;;;;;21.66;57.28;100942.19;4131478;28;20536;-70
2022/07/22 07:05:37;;;;;;;13.50;7.68;;;;;;;21.63;57.26;100936.97;4132208;28;20120;-70
2022/07/22 07:07:42;;;;;;;11.20;7.18;;;;;;;21.61;57.71;100931.69;4132227;28;20042;-70
2022/07/22 07:09:46;;;;;;;11.75;7.63;;;;;;;21.81;57.23;100931.19;4132116;28;20447;-69
2022/07/22 07:11:55;;;;;;;12.90;8.88;;;;;;;21.93;56.55;100922.97;4131316;28;20057;-70
2022/07/22 07:14:36;;;;;;;10.55;7.10;;;;;;;21.97;56.62;100921.94;4147275;28;20202;-70
2022/07/22 07:16:43;;;;;;;10.00;7.43;;;;;;;22.06;56.07;100920.84;4147562;28;20130;-70
2022/07/22 07:18:46;;;;;;;12.98;8.63;;;;;;;22.03;56.26;100918.28;4146413;28;20046;-70
2022/07/22 07:20:50;;;;;;;11.60;8.43;;;;;;;21.92;56.61;100915.94;4148127;28;20484;-70
2022/07/22 07:22:55;;;;;;;12.52;6.72;;;;;;;21.99;56.58;100910.47;4114906;28;20056;-70
2022/07/22 07:25:04;;;;;;;10.93;7.65;;;;;;;22.00;56.60;100907.78;4115808;28;20050;-70
2022/07/22 07:27:26;;;;;;;16.77;8.65;;;;;;;22.12;56.96;100911.88;4131742;28;20042;-71
2022/07/22 07:29:31;;;;;;;12.40;7.60;;;;;;;22.18;56.41;100901.13;4115580;28;20043;-70
2022/07/22 07:31:35;;;;;;;10.23;6.97;;;;;;;22.36;56.00;100901.59;4147612;28;20539;-70
2022/07/22 07:33:44;;;;;;;10.70;6.93;;;;;;;22.40;56.15;100905.84;4131601;28;20053;-70
2022/07/22 07:35:47;;;;;;;10.25;7.78;;;;;;;22.48;55.19;100904.72;4131506;28;20034;-70
2022/07/22 07:37:57;;;;;;;7.82;5.93;;;;;;;22.36;55.85;100904.22;4131781;28;20121;-69
2022/07/22 07:40:00;;;;;;;12.35;7.97;;;;;;;22.58;54.83;100905.34;4131715;28;20034;-70
2022/07/22 07:42:04;;;;;;;11.35;7.18;;;;;;;22.56;54.56;100896.59;4130787;28;20089;-70
2022/07/22 07:44:07;;;;;;;9.95;6.88;;;;;;;22.54;54.72;100894.88;4115244;28;20394;-69
2022/07/22 07:46:13;;;;;;;10.68;7.65;;;;;;;22.50;54.93;100896.72;4131383;28;20042;-70
2022/07/22 07:48:16;;;;;;;10.77;7.85;;;;;;;22.59;54.89;100895.59;4131560;28;20043;-70
2022/07/22 07:50:19;;;;;;;12.05;8.13;;;;;;;22.61;54.55;100897.31;4147629;28;20043;-70
2022/07/22 07:52:22;;;;;;;10.05;7.13;;;;;;;22.71;54.26;100889.09;4130712;28;20058;-70
2022/07/22 07:54:27;;;;;;;10.75;7.95;;;;;;;22.63;54.67;100894.59;4131274;28;20133;-70
2022/07/22 07:56:48;;;;;;;12.68;8.30;;;;;;;22.71;54.54;100879.34;4147353;28;20038;-70
2022/07/22 07:58:51;;;;;;;11.47;8.60;;;;;;;22.74;54.15;100884.56;4147557;28;20049;-70
2022/07/22 08:01:15;;;;;;;13.52;7.38;;;;;;;22.69;54.55;100880.31;4131190;28;20089;-70
2022/07/22 08:03:19;;;;;;;12.38;7.63;;;;;;;22.78;54.53;100885.31;4114359;28;20047;-69
2022/07/22 08:05:22;;;;;;;9.75;6.15;;;;;;;22.85;54.29;100889.53;4147317;28;20503;-69
2022/07/22 08:07:26;;;;;;;12.25;6.90;;;;;;;22.92;54.29;100879.63;4147339;28;20065;-70
2022/07/22 08:09:35;;;;;;;11.13;6.95;;;;;;;23.04;53.19;100875.72;4131113;28;20058;-70
2022/07/22 08:11:43;;;;;;;8.82;6.68;;;;;;;23.30;52.01;100882.91;4130407;28;20050;-68
2022/07/22 08:14:22;;;;;;;11.18;6.03;;;;;;;23.20;52.19;100881.44;4130064;28;20050;-69
2022/07/22 08:16:44;;;;;;;7.95;5.25;;;;;;;22.97;52.79;100872.41;4131712;28;20058;-70
2022/07/22 08:18:47;;;;;;;10.98;6.43;;;;;;;23.04;53.43;100875.72;4130955;28;20049;-70
2022/07/22 08:20:50;;;;;;;10.95;6.85;;;;;;;23.20;52.59;100873.50;4130828;28;20528;-70
2022/07/22 08:22:57;;;;;;;10.00;7.00;;;;;;;23.30;52.86;100874.94;4114027;28;20050;-70
2022/07/22 08:25:05;;;;;;;10.90;6.55;;;;;;;23.39;52.47;100876.41;4147114;28;20042;-68
2022/07/22 08:27:09;;;;;;;8.73;6.65;;;;;;;23.39;51.00;100876.41;4130759;28;20043;-70
2022/07/22 08:29:11;;;;;;;13.35;7.47;;;;;;;23.46;51.76;100867.34;4130506;28;20042;-70
2022/07/22 08:31:16;;;;;;;8.63;6.38;;;;;;;23.41;52.27;100872.81;4130971;28;20164;-70
2022/07/22 08:33:20;;;;;;;10.20;7.82;;;;;;;23.39;52.11;100871.97;4130019;28;20069;-69
2022/07/22 08:35:23;;;;;;;12.63;6.15;;;;;;;23.31;52.61;100874.03;4130690;28;20145;-70
2022/07/22 08:37:26;;;;;;;11.68;6.18;;;;;;;23.41;52.73;100867.50;4131880;28;20046;-70
2022/07/22 08:39:29;;;;;;;14.82;6.28;;;;;;;23.42;52.11;100869.25;4114535;28;20051;-70
2022/07/22 08:41:36;;;;;;;9.77;6.18;;;;;;;23.62;51.81;100868.56;4146804;28;20042;-70
2022/07/22 08:43:41;;;;;;;9.23;5.63;;;;;;;23.72;51.67;100871.78;4130623;28;20046;-70
2022/07/22 08:45:45;;;;;;;12.95;7.13;;;;;;;23.86;51.76;100866.03;4130629;28;20566;-70
2022/07/22 08:47:49;;;;;;;11.87;7.30;;;;;;;23.99;50.96;100866.47;4130757;28;20456;-70
2022/07/22 08:49:53;;;;;;;8.10;6.28;;;;;;;23.95;50.97;100862.19;4131795;28;20293;-70
2022/07/22 08:52:12;;;;;;;11.70;6.30;;;;;;;23.96;51.20;100859.50;4129804;28;20050;-70
2022/07/22 08:54:20;;;;;;;13.05;6.07;;;;;;;24.01;51.36;100864.63;4130534;28;20046;-70
2022/07/22 08:56:24;;;;;;;9.87;5.93;;;;;;;23.97;51.63;100855.03;4130808;28;20045;-70
2022/07/22 08:58:28;;;;;;;13.90;6.90;;;;;;;24.13;51.04;100858.00;4130587;28;20766;-70
2022/07/22 09:00:36;;;;;;;11.77;6.82;;;;;;;24.17;51.44;100857.84;4130435;28;20043;-70
2022/07/22 09:02:42;;;;;;;11.88;7.43;;;;;;;24.46;50.36;100855.03;4129753;28;20466;-70
2022/07/22 09:04:55;;;;;;;13.70;7.53;;;;;;;24.37;50.11;100850.91;4130422;28;20499;-70
2022/07/22 09:06:58;;;;;;;7.20;5.50;;;;;;;24.28;50.75;100853.94;4130468;28;20121;-70
2022/07/22 09:09:05;;;;;;;11.60;7.00;;;;;;;24.40;50.16;100849.03;4130480;28;20468;-70
2022/07/22 09:11:47;;;;;;;8.60;6.53;;;;;;;24.47;50.22;100848.78;4118995;28;20101;-70
2022/07/22 09:14:27;;;;;;;10.57;6.55;;;;;;;24.55;49.87;100844.06;4113456;28;20082;-69
2022/07/22 09:16:49;;;;;;;12.90;7.85;;;;;;;24.78;49.04;100843.22;4125592;28;20137;-70
2022/07/22 09:19:14;;;;;;;10.95;5.82;;;;;;;24.58;50.03;100850.13;4130416;28;20038;-70
2022/07/22 09:21:29;;;;;;;9.18;6.13;;;;;;;24.65;49.73;100841.94;4130493;28;20134;-70
2022/07/22 09:23:51;;;;;;;12.50;7.25;;;;;;;24.80;49.05;100840.50;4131385;28;20540;-71
2022/07/22 09:25:54;;;;;;;11.30;7.28;;;;;;;24.85;49.25;100835.84;4131365;28;20142;-70
2022/07/22 09:28:12;;;;;;;9.30;6.97;;;;;;;24.91;48.94;100830.28;4131486;28;20039;-70
2022/07/22 09:30:51;;;;;;;10.27;6.47;;;;;;;25.13;48.86;100837.41;4126654;28;20061;-70
2022/07/22 09:32:57;;;;;;;14.18;6.68;;;;;;;25.07;48.72;100835.84;4129458;28;20109;-71
2022/07/22 09:35:14;;;;;;;7.82;5.72;;;;;;;24.97;48.92;100827.41;4130239;28;20529;-70
2022/07/22 09:37:22;;;;;;;11.32;6.35;;;;;;;25.13;48.80;100829.41;4130245;28;20042;-70
2022/07/22 09:39:26;;;;;;;10.20;6.45;;;;;;;25.25;48.56;100834.25;4130204;28;20058;-71
2022/07/22 09:41:30;;;;;;;9.43;6.25;;;;;;;25.18;48.90;100830.13;4130924;28;20057;-71
2022/07/22 09:43:37;;;;;;;9.45;6.15;;;;;;;25.35;48.91;100832.09;4132741;28;20044;-71